sensor_id;sensor_type;location;lat;lon;timestamp;temperature;humidity
18043;DHT22;9146;48.074;11.968;2023-04-04T00:02:17;-0.40;99.90
18043;DHT22;9146;48.074;11.968;2023-04-04T00:04:44;-0.50;99.90
18043;DHT22;9146;48.074;11.968;2023-04-04T00:07:11;-0.50;99.90
18043;DHT22;9146;48.074;11.968;2023-04-04T00:09:38;-0.50;99.90
18043;DHT22;9146;48.074;11.968;2023-04-04T00:12:07;-0.50;99.90
18043;DHT22;9146;48.074;11.968;2023-04-04T00:14:34;-0.60;99.90
18043;DHT22;9146;48.074;11.968;2023-04-04T00:17:00;-0.60;99.90
18043;DHT22;9146;48.074;11.968;2023-04-04T00:19:27;-0.70;99.90
18043;DHT22;9146;48.074;11.968;2023-04-04T00:21:54;-0.70;99.90
18043;DHT22;9146;48.074;11.968;2023-04-04T00:24:21;-0.70;99.90
18043;DHT22;9146;48.074;11.968;2023-04-04T00:26:49;-0.80;99.90
18043;DHT22;9146;48.074;11.968;2023-04-04T00:29:18;-0.80;99.90
18043;DHT22;9146;48.074;11.968;2023-04-04T00:31:44;-0.90;99.90
18043;DHT22;9146;48.074;11.968;2023-04-04T00:34:11;-1.00;99.90
18043;DHT22;9146;48.074;11.968;2023-04-04T00:36:38;-1.00;99.90
18043;DHT22;9146;48.074;11.968;2023-04-04T00:39:05;-1.10;99.90
18043;DHT22;9146;48.074;11.968;2023-04-04T00:41:32;-1.10;99.90
18043;DHT22;9146;48.074;11.968;2023-04-04T00:43:59;-1.20;99.90
18043;DHT22;9146;48.074;11.968;2023-04-04T00:46:28;-1.30;99.90
18043;DHT22;9146;48.074;11.968;2023-04-04T00:48:55;-1.30;99.90
18043;DHT22;9146;48.074;11.968;2023-04-04T00:51:22;-1.40;99.90
18043;DHT22;9146;48.074;11.968;2023-04-04T00:53:50;-1.50;99.90
18043;DHT22;9146;48.074;11.968;2023-04-04T00:56:17;-1.60;99.90
18043;DHT22;9146;48.074;11.968;2023-04-04T00:58:45;-1.60;99.90
18043;DHT22;9146;48.074;11.968;2023-04-04T01:01:12;-1.70;99.90
18043;DHT22;9146;48.074;11.968;2023-04-04T01:03:41;-1.80;99.90
18043;DHT22;9146;48.074;11.968;2023-04-04T01:06:09;-1.90;99.90
18043;DHT22;9146;48.074;11.968;2023-04-04T01:08:36;-1.90;99.90
18043;DHT22;9146;48.074;11.968;2023-04-04T01:11:04;-2.00;99.90
18043;DHT22;9146;48.074;11.968;2023-04-04T01:13:33;-2.00;99.90
18043;DHT22;9146;48.074;11.968;2023-04-04T01:16:00;-2.10;99.90
18043;DHT22;9146;48.074;11.968;2023-04-04T01:18:27;-2.10;99.90
18043;DHT22;9146;48.074;11.968;2023-04-04T01:21:00;-2.20;99.90
18043;DHT22;9146;48.074;11.968;2023-04-04T01:23:33;-2.30;99.90
18043;DHT22;9146;48.074;11.968;2023-04-04T01:26:03;-2.20;99.90
18043;DHT22;9146;48.074;11.968;2023-04-04T01:28:31;-2.20;99.90
18043;DHT22;9146;48.074;11.968;2023-04-04T01:30:59;-2.30;99.90
18043;DHT22;9146;48.074;11.968;2023-04-04T01:33:28;-2.40;99.90
18043;DHT22;9146;48.074;11.968;2023-04-04T01:36:02;-2.30;99.90
18043;DHT22;9146;48.074;11.968;2023-04-04T01:38:36;-2.50;99.90
18043;DHT22;9146;48.074;11.968;2023-04-04T01:41:07;-2.50;99.90
18043;DHT22;9146;48.074;11.968;2023-04-04T01:43:35;-2.60;99.90
18043;DHT22;9146;48.074;11.968;2023-04-04T01:46:02;-2.60;99.90
18043;DHT22;9146;48.074;11.968;2023-04-04T01:48:30;-2.70;99.90
18043;DHT22;9146;48.074;11.968;2023-04-04T01:50:56;-2.70;99.90
18043;DHT22;9146;48.074;11.968;2023-04-04T01:53:23;-2.80;99.90
18043;DHT22;9146;48.074;11.968;2023-04-04T01:55:51;-2.80;99.90
18043;DHT22;9146;48.074;11.968;2023-04-04T01:58:20;-2.80;99.90
18043;DHT22;9146;48.074;11.968;2023-04-04T02:00:48;-2.80;99.90
18043;DHT22;9146;48.074;11.968;2023-04-04T02:03:15;-2.80;99.90
18043;DHT22;9146;48.074;11.968;2023-04-04T02:05:42;-2.80;99.90
18043;DHT22;9146;48.074;11.968;2023-04-04T02:08:09;-3.00;99.90
18043;DHT22;9146;48.074;11.968;2023-04-04T02:10:36;-2.90;99.90
18043;DHT22;9146;48.074;11.968;2023-04-04T02:13:03;-3.00;99.90
18043;DHT22;9146;48.074;11.968;2023-04-04T02:15:32;-3.00;99.90
18043;DHT22;9146;48.074;11.968;2023-04-04T02:18:00;-3.10;99.90
18043;DHT22;9146;48.074;11.968;2023-04-04T02:20:28;-3.10;99.90
18043;DHT22;9146;48.074;11.968;2023-04-04T02:22:55;-3.10;99.90
18043;DHT22;9146;48.074;11.968;2023-04-04T02:25:23;-3.20;99.90
18043;DHT22;9146;48.074;11.968;2023-04-04T02:27:50;-3.10;99.90
18043;DHT22;9146;48.074;11.968;2023-04-04T02:30:17;-3.10;99.90
18043;DHT22;9146;48.074;11.968;2023-04-04T02:32:46;-3.20;99.90
18043;DHT22;9146;48.074;11.968;2023-04-04T02:35:14;-3.20;99.90
18043;DHT22;9146;48.074;11.968;2023-04-04T02:37:43;-3.20;99.90
18043;DHT22;9146;48.074;11.968;2023-04-04T02:40:12;-3.20;99.90
18043;DHT22;9146;48.074;11.968;2023-04-04T02:42:41;-3.20;99.90
18043;DHT22;9146;48.074;11.968;2023-04-04T02:45:10;-3.20;99.90
18043;DHT22;9146;48.074;11.968;2023-04-04T02:47:39;-3.20;99.90
18043;DHT22;9146;48.074;11.968;2023-04-04T02:50:10;-3.30;99.90
18043;DHT22;9146;48.074;11.968;2023-04-04T02:52:37;-3.30;99.90
18043;DHT22;9146;48.074;11.968;2023-04-04T02:55:05;-3.30;99.90
18043;DHT22;9146;48.074;11.968;2023-04-04T02:57:33;-3.30;99.90
18043;DHT22;9146;48.074;11.968;2023-04-04T03:00:00;-3.40;99.90
18043;DHT22;9146;48.074;11.968;2023-04-04T03:02:28;-3.40;99.90
18043;DHT22;9146;48.074;11.968;2023-04-04T03:04:55;-3.40;99.90
18043;DHT22;9146;48.074;11.968;2023-04-04T03:07:23;-3.40;99.90
18043;DHT22;9146;48.074;11.968;2023-04-04T03:09:50;-3.40;99.90
18043;DHT22;9146;48.074;11.968;2023-04-04T03:12:19;-3.50;99.90
18043;DHT22;9146;48.074;11.968;2023-04-04T03:14:46;-3.50;99.90
18043;DHT22;9146;48.074;11.968;2023-04-04T03:17:14;-3.50;99.90
18043;DHT22;9146;48.074;11.968;2023-04-04T03:19:42;-3.50;99.90
18043;DHT22;9146;48.074;11.968;2023-04-04T03:22:09;-3.50;99.90
18043;DHT22;9146;48.074;11.968;2023-04-04T03:24:38;-3.50;99.90
18043;DHT22;9146;48.074;11.968;2023-04-04T03:27:05;-3.50;99.90
18043;DHT22;9146;48.074;11.968;2023-04-04T03:29:31;-3.60;99.90
18043;DHT22;9146;48.074;11.968;2023-04-04T03:31:58;-3.60;99.90
18043;DHT22;9146;48.074;11.968;2023-04-04T03:34:26;-3.60;99.90
18043;DHT22;9146;48.074;11.968;2023-04-04T03:36:53;-3.60;99.90
18043;DHT22;9146;48.074;11.968;2023-04-04T03:39:26;-3.70;99.90
18043;DHT22;9146;48.074;11.968;2023-04-04T03:41:55;-3.70;99.90
18043;DHT22;9146;48.074;11.968;2023-04-04T03:44:22;-3.70;99.90
18043;DHT22;9146;48.074;11.968;2023-04-04T03:46:49;-3.70;99.90
18043;DHT22;9146;48.074;11.968;2023-04-04T03:49:16;-3.70;99.90
18043;DHT22;9146;48.074;11.968;2023-04-04T03:51:43;-3.80;99.90
18043;DHT22;9146;48.074;11.968;2023-04-04T03:54:10;-3.80;99.90
18043;DHT22;9146;48.074;11.968;2023-04-04T03:56:37;-3.80;99.90
18043;DHT22;9146;48.074;11.968;2023-04-04T03:59:05;-3.80;99.90
18043;DHT22;9146;48.074;11.968;2023-04-04T04:01:32;-3.80;99.90
18043;DHT22;9146;48.074;11.968;2023-04-04T04:03:59;-3.80;99.90
18043;DHT22;9146;48.074;11.968;2023-04-04T04:06:26;-3.90;99.90
18043;DHT22;9146;48.074;11.968;2023-04-04T04:08:53;-3.90;99.90
18043;DHT22;9146;48.074;11.968;2023-04-04T04:11:20;-3.90;99.90
18043;DHT22;9146;48.074;11.968;2023-04-04T04:13:48;-3.90;99.90
18043;DHT22;9146;48.074;11.968;2023-04-04T04:16:16;-3.90;99.90
18043;DHT22;9146;48.074;11.968;2023-04-04T04:18:43;-3.90;99.90
18043;DHT22;9146;48.074;11.968;2023-04-04T04:21:10;-3.90;99.90
18043;DHT22;9146;48.074;11.968;2023-04-04T04:23:37;-3.90;99.90
18043;DHT22;9146;48.074;11.968;2023-04-04T04:26:05;-3.90;99.90
18043;DHT22;9146;48.074;11.968;2023-04-04T04:28:32;-3.90;99.90
18043;DHT22;9146;48.074;11.968;2023-04-04T04:31:03;-4.00;99.90
18043;DHT22;9146;48.074;11.968;2023-04-04T04:33:32;-4.00;99.90
18043;DHT22;9146;48.074;11.968;2023-04-04T04:35:59;-4.00;99.90
18043;DHT22;9146;48.074;11.968;2023-04-04T04:38:27;-4.00;99.90
18043;DHT22;9146;48.074;11.968;2023-04-04T04:40:54;-4.00;99.90
18043;DHT22;9146;48.074;11.968;2023-04-04T04:43:21;-4.00;99.90
18043;DHT22;9146;48.074;11.968;2023-04-04T04:45:48;-4.00;99.90
18043;DHT22;9146;48.074;11.968;2023-04-04T04:48:16;-4.00;99.90
18043;DHT22;9146;48.074;11.968;2023-04-04T04:50:44;-4.00;99.90
18043;DHT22;9146;48.074;11.968;2023-04-04T04:53:11;-4.00;99.90
18043;DHT22;9146;48.074;11.968;2023-04-04T04:55:39;-4.00;99.90
18043;DHT22;9146;48.074;11.968;2023-04-04T04:58:07;-4.00;99.90
18043;DHT22;9146;48.074;11.968;2023-04-04T05:00:35;-4.00;99.90
18043;DHT22;9146;48.074;11.968;2023-04-04T05:03:03;-4.00;99.90
18043;DHT22;9146;48.074;11.968;2023-04-04T05:05:31;-4.00;99.90
18043;DHT22;9146;48.074;11.968;2023-04-04T05:08:01;-4.00;99.90
18043;DHT22;9146;48.074;11.968;2023-04-04T05:10:28;-4.00;99.90
18043;DHT22;9146;48.074;11.968;2023-04-04T05:12:55;-3.90;99.90
18043;DHT22;9146;48.074;11.968;2023-04-04T05:15:23;-3.90;99.90
18043;DHT22;9146;48.074;11.968;2023-04-04T05:17:53;-3.80;99.90
18043;DHT22;9146;48.074;11.968;2023-04-04T05:20:20;-3.80;99.90
18043;DHT22;9146;48.074;11.968;2023-04-04T05:22:48;-3.80;99.90
18043;DHT22;9146;48.074;11.968;2023-04-04T05:25:17;-3.70;99.90
18043;DHT22;9146;48.074;11.968;2023-04-04T05:27:46;-3.70;99.90
18043;DHT22;9146;48.074;11.968;2023-04-04T05:30:14;-3.60;99.90
18043;DHT22;9146;48.074;11.968;2023-04-04T05:32:43;-3.50;99.90
18043;DHT22;9146;48.074;11.968;2023-04-04T05:35:10;-3.40;99.90
18043;DHT22;9146;48.074;11.968;2023-04-04T05:37:38;-3.40;99.90
18043;DHT22;9146;48.074;11.968;2023-04-04T05:40:07;-3.30;99.90
18043;DHT22;9146;48.074;11.968;2023-04-04T05:42:35;-3.20;99.90
18043;DHT22;9146;48.074;11.968;2023-04-04T05:45:03;-3.10;99.90
18043;DHT22;9146;48.074;11.968;2023-04-04T05:47:30;-3.00;99.90
18043;DHT22;9146;48.074;11.968;2023-04-04T05:49:57;-2.90;99.90
18043;DHT22;9146;48.074;11.968;2023-04-04T05:52:24;-2.80;99.90
18043;DHT22;9146;48.074;11.968;2023-04-04T05:54:51;-2.70;99.90
18043;DHT22;9146;48.074;11.968;2023-04-04T05:57:18;-2.60;99.90
18043;DHT22;9146;48.074;11.968;2023-04-04T05:59:46;-2.50;99.90
18043;DHT22;9146;48.074;11.968;2023-04-04T06:02:13;-2.40;99.90
18043;DHT22;9146;48.074;11.968;2023-04-04T06:04:40;-2.20;99.90
18043;DHT22;9146;48.074;11.968;2023-04-04T06:07:09;-2.10;99.90
18043;DHT22;9146;48.074;11.968;2023-04-04T06:09:36;-2.00;99.90
18043;DHT22;9146;48.074;11.968;2023-04-04T06:12:04;-1.90;99.90
18043;DHT22;9146;48.074;11.968;2023-04-04T06:14:31;-1.70;99.90
18043;DHT22;9146;48.074;11.968;2023-04-04T06:17:00;-1.60;99.90
18043;DHT22;9146;48.074;11.968;2023-04-04T06:19:27;-1.50;99.90
18043;DHT22;9146;48.074;11.968;2023-04-04T06:21:54;-1.40;99.90
18043;DHT22;9146;48.074;11.968;2023-04-04T06:24:21;-1.30;99.90
18043;DHT22;9146;48.074;11.968;2023-04-04T06:26:48;-1.20;99.90
18043;DHT22;9146;48.074;11.968;2023-04-04T06:29:16;-1.10;99.90
18043;DHT22;9146;48.074;11.968;2023-04-04T06:31:43;-1.10;99.90
18043;DHT22;9146;48.074;11.968;2023-04-04T06:34:11;-1.00;99.90
18043;DHT22;9146;48.074;11.968;2023-04-04T06:36:39;-0.90;99.90
18043;DHT22;9146;48.074;11.968;2023-04-04T06:39:06;-0.90;99.90
18043;DHT22;9146;48.074;11.968;2023-04-04T06:41:33;-0.90;99.90
18043;DHT22;9146;48.074;11.968;2023-04-04T06:44:00;-0.90;99.90
18043;DHT22;9146;48.074;11.968;2023-04-04T06:46:28;-0.90;99.90
18043;DHT22;9146;48.074;11.968;2023-04-04T06:48:55;-0.90;99.90
18043;DHT22;9146;48.074;11.968;2023-04-04T06:51:24;-0.90;99.90
18043;DHT22;9146;48.074;11.968;2023-04-04T06:53:51;-0.80;99.90
18043;DHT22;9146;48.074;11.968;2023-04-04T06:56:18;-0.70;99.90
18043;DHT22;9146;48.074;11.968;2023-04-04T06:58:46;-0.60;99.90
18043;DHT22;9146;48.074;11.968;2023-04-04T07:01:13;-0.50;99.90
18043;DHT22;9146;48.074;11.968;2023-04-04T07:03:40;-0.40;99.90
18043;DHT22;9146;48.074;11.968;2023-04-04T07:06:09;-0.40;99.90
18043;DHT22;9146;48.074;11.968;2023-04-04T07:08:37;-0.30;99.90
18043;DHT22;9146;48.074;11.968;2023-04-04T07:11:04;-0.20;99.90
18043;DHT22;9146;48.074;11.968;2023-04-04T07:13:32;-0.20;99.90
18043;DHT22;9146;48.074;11.968;2023-04-04T07:16:01;-0.10;99.90
18043;DHT22;9146;48.074;11.968;2023-04-04T07:18:28;-0.10;99.90
18043;DHT22;9146;48.074;11.968;2023-04-04T07:20:55;-0.10;99.90
18043;DHT22;9146;48.074;11.968;2023-04-04T07:23:22;-0.10;99.90
18043;DHT22;9146;48.074;11.968;2023-04-04T07:25:50;0.00;99.90
18043;DHT22;9146;48.074;11.968;2023-04-04T07:28:17;0.10;99.90
18043;DHT22;9146;48.074;11.968;2023-04-04T07:30:45;0.10;99.90
18043;DHT22;9146;48.074;11.968;2023-04-04T07:33:12;0.20;99.90
18043;DHT22;9146;48.074;11.968;2023-04-04T07:35:39;0.20;99.90
18043;DHT22;9146;48.074;11.968;2023-04-04T07:38:05;0.30;99.90
18043;DHT22;9146;48.074;11.968;2023-04-04T07:40:32;0.30;99.90
18043;DHT22;9146;48.074;11.968;2023-04-04T07:43:01;0.30;99.90
18043;DHT22;9146;48.074;11.968;2023-04-04T07:45:28;0.50;99.90
18043;DHT22;9146;48.074;11.968;2023-04-04T07:47:56;0.50;99.90
18043;DHT22;9146;48.074;11.968;2023-04-04T07:50:23;0.50;99.90
18043;DHT22;9146;48.074;11.968;2023-04-04T07:52:50;0.50;99.90
18043;DHT22;9146;48.074;11.968;2023-04-04T07:55:19;0.60;99.90
18043;DHT22;9146;48.074;11.968;2023-04-04T07:57:46;0.70;99.90
18043;DHT22;9146;48.074;11.968;2023-04-04T08:00:15;0.80;99.90
18043;DHT22;9146;48.074;11.968;2023-04-04T08:02:46;0.90;99.90
18043;DHT22;9146;48.074;11.968;2023-04-04T08:05:17;0.90;99.90
18043;DHT22;9146;48.074;11.968;2023-04-04T08:07:43;1.00;99.90
18043;DHT22;9146;48.074;11.968;2023-04-04T08:10:11;1.10;99.90
18043;DHT22;9146;48.074;11.968;2023-04-04T08:12:38;1.20;99.90
18043;DHT22;9146;48.074;11.968;2023-04-04T08:15:05;1.20;99.90
18043;DHT22;9146;48.074;11.968;2023-04-04T08:17:35;1.20;99.90
18043;DHT22;9146;48.074;11.968;2023-04-04T08:20:02;1.20;99.90
18043;DHT22;9146;48.074;11.968;2023-04-04T08:22:30;1.20;99.90
18043;DHT22;9146;48.074;11.968;2023-04-04T08:24:57;1.20;99.90
18043;DHT22;9146;48.074;11.968;2023-04-04T08:27:25;1.30;99.90
18043;DHT22;9146;48.074;11.968;2023-04-04T08:29:52;1.50;99.90
18043;DHT22;9146;48.074;11.968;2023-04-04T08:32:19;1.60;99.90
18043;DHT22;9146;48.074;11.968;2023-04-04T08:34:48;1.90;99.90
18043;DHT22;9146;48.074;11.968;2023-04-04T08:37:15;2.00;99.90
18043;DHT22;9146;48.074;11.968;2023-04-04T08:39:42;2.10;99.90
18043;DHT22;9146;48.074;11.968;2023-04-04T08:42:10;2.20;99.30
18043;DHT22;9146;48.074;11.968;2023-04-04T08:44:38;2.30;98.90
18043;DHT22;9146;48.074;11.968;2023-04-04T08:47:08;2.40;97.90
18043;DHT22;9146;48.074;11.968;2023-04-04T08:49:38;2.50;95.70
18043;DHT22;9146;48.074;11.968;2023-04-04T08:52:10;2.50;95.50
18043;DHT22;9146;48.074;11.968;2023-04-04T08:54:39;2.60;96.00
18043;DHT22;9146;48.074;11.968;2023-04-04T08:57:07;2.70;94.40
18043;DHT22;9146;48.074;11.968;2023-04-04T08:59:34;2.90;94.20
18043;DHT22;9146;48.074;11.968;2023-04-04T09:02:13;3.10;93.30
18043;DHT22;9146;48.074;11.968;2023-04-04T09:04:42;3.20;93.60
18043;DHT22;9146;48.074;11.968;2023-04-04T09:07:11;3.40;94.20
18043;DHT22;9146;48.074;11.968;2023-04-04T09:09:41;3.50;90.20
18043;DHT22;9146;48.074;11.968;2023-04-04T09:12:12;3.60;90.00
18043;DHT22;9146;48.074;11.968;2023-04-04T09:14:40;3.70;90.30
18043;DHT22;9146;48.074;11.968;2023-04-04T09:17:08;3.90;90.30
18043;DHT22;9146;48.074;11.968;2023-04-04T09:19:35;4.20;90.00
18043;DHT22;9146;48.074;11.968;2023-04-04T09:22:06;4.30;84.70
18043;DHT22;9146;48.074;11.968;2023-04-04T09:24:42;4.40;84.40
18043;DHT22;9146;48.074;11.968;2023-04-04T09:27:10;4.50;84.10
18043;DHT22;9146;48.074;11.968;2023-04-04T09:29:38;4.40;82.40
18043;DHT22;9146;48.074;11.968;2023-04-04T09:32:07;4.20;80.60
18043;DHT22;9146;48.074;11.968;2023-04-04T09:34:35;4.20;80.00
18043;DHT22;9146;48.074;11.968;2023-04-04T09:37:02;4.10;79.80
18043;DHT22;9146;48.074;11.968;2023-04-04T09:39:30;4.10;79.90
18043;DHT22;9146;48.074;11.968;2023-04-04T09:42:00;4.20;79.30
18043;DHT22;9146;48.074;11.968;2023-04-04T09:44:27;4.20;77.20
18043;DHT22;9146;48.074;11.968;2023-04-04T09:49:48;4.10;77.10
18043;DHT22;9146;48.074;11.968;2023-04-04T09:52:17;4.00;76.90
18043;DHT22;9146;48.074;11.968;2023-04-04T09:54:54;4.10;78.00
18043;DHT22;9146;48.074;11.968;2023-04-04T09:57:24;4.30;77.40
18043;DHT22;9146;48.074;11.968;2023-04-04T09:59:52;4.30;76.10
18043;DHT22;9146;48.074;11.968;2023-04-04T10:02:21;4.40;74.70
18043;DHT22;9146;48.074;11.968;2023-04-04T10:04:48;4.40;74.00
18043;DHT22;9146;48.074;11.968;2023-04-04T10:07:16;4.40;73.60
18043;DHT22;9146;48.074;11.968;2023-04-04T10:09:42;4.40;74.20
18043;DHT22;9146;48.074;11.968;2023-04-04T10:12:12;4.40;75.00
18043;DHT22;9146;48.074;11.968;2023-04-04T10:14:40;4.50;73.20
18043;DHT22;9146;48.074;11.968;2023-04-04T10:17:08;4.40;72.60
18043;DHT22;9146;48.074;11.968;2023-04-04T10:19:36;4.30;73.70
18043;DHT22;9146;48.074;11.968;2023-04-04T10:22:04;4.20;74.00
18043;DHT22;9146;48.074;11.968;2023-04-04T10:24:31;4.20;73.70
18043;DHT22;9146;48.074;11.968;2023-04-04T10:26:58;4.20;73.20
18043;DHT22;9146;48.074;11.968;2023-04-04T10:29:25;4.10;73.60
18043;DHT22;9146;48.074;11.968;2023-04-04T10:31:58;4.10;73.60
18043;DHT22;9146;48.074;11.968;2023-04-04T10:34:32;4.30;73.10
18043;DHT22;9146;48.074;11.968;2023-04-04T10:37:06;4.40;76.80
18043;DHT22;9146;48.074;11.968;2023-04-04T10:39:37;4.50;75.40
18043;DHT22;9146;48.074;11.968;2023-04-04T10:42:05;4.60;72.10
18043;DHT22;9146;48.074;11.968;2023-04-04T10:44:37;4.60;73.00
18043;DHT22;9146;48.074;11.968;2023-04-04T10:47:13;4.50;73.40
18043;DHT22;9146;48.074;11.968;2023-04-04T10:49:42;4.50;73.50
18043;DHT22;9146;48.074;11.968;2023-04-04T10:52:11;4.30;73.70
18043;DHT22;9146;48.074;11.968;2023-04-04T10:54:40;4.00;74.40
18043;DHT22;9146;48.074;11.968;2023-04-04T10:57:08;4.00;75.80
18043;DHT22;9146;48.074;11.968;2023-04-04T10:59:57;3.90;74.00
18043;DHT22;9146;48.074;11.968;2023-04-04T11:02:47;3.70;73.70
18043;DHT22;9146;48.074;11.968;2023-04-04T11:05:19;3.60;72.80
18043;DHT22;9146;48.074;11.968;2023-04-04T11:07:49;3.70;73.10
18043;DHT22;9146;48.074;11.968;2023-04-04T11:10:21;3.90;72.60
18043;DHT22;9146;48.074;11.968;2023-04-04T11:12:52;4.20;72.10
18043;DHT22;9146;48.074;11.968;2023-04-04T11:15:22;4.40;72.50
18043;DHT22;9146;48.074;11.968;2023-04-04T11:17:54;4.80;70.60
18043;DHT22;9146;48.074;11.968;2023-04-04T11:20:23;5.10;70.70
18043;DHT22;9146;48.074;11.968;2023-04-04T11:22:55;5.40;70.40
18043;DHT22;9146;48.074;11.968;2023-04-04T11:25:30;5.70;70.40
18043;DHT22;9146;48.074;11.968;2023-04-04T11:27:57;5.80;67.60
18043;DHT22;9146;48.074;11.968;2023-04-04T11:30:25;5.90;68.30
18043;DHT22;9146;48.074;11.968;2023-04-04T11:32:57;5.90;66.90
18043;DHT22;9146;48.074;11.968;2023-04-04T11:35:26;5.80;65.10
18043;DHT22;9146;48.074;11.968;2023-04-04T11:37:59;5.70;64.30
18043;DHT22;9146;48.074;11.968;2023-04-04T11:40:35;5.80;65.50
18043;DHT22;9146;48.074;11.968;2023-04-04T11:43:07;5.80;64.80
18043;DHT22;9146;48.074;11.968;2023-04-04T11:45:35;6.00;66.00
18043;DHT22;9146;48.074;11.968;2023-04-04T11:48:05;6.10;67.00
18043;DHT22;9146;48.074;11.968;2023-04-04T11:50:37;6.30;67.80
18043;DHT22;9146;48.074;11.968;2023-04-04T11:53:05;6.30;67.80
18043;DHT22;9146;48.074;11.968;2023-04-04T11:55:38;6.30;66.00
18043;DHT22;9146;48.074;11.968;2023-04-04T11:58:10;6.10;65.70
18043;DHT22;9146;48.074;11.968;2023-04-04T12:00:38;6.00;67.30
18043;DHT22;9146;48.074;11.968;2023-04-04T12:03:09;5.90;68.60
18043;DHT22;9146;48.074;11.968;2023-04-04T12:05:37;6.00;67.20
18043;DHT22;9146;48.074;11.968;2023-04-04T12:08:06;5.80;66.60
18043;DHT22;9146;48.074;11.968;2023-04-04T12:10:35;5.90;67.50
18043;DHT22;9146;48.074;11.968;2023-04-04T12:13:05;5.90;66.40
18043;DHT22;9146;48.074;11.968;2023-04-04T12:15:33;5.70;66.40
18043;DHT22;9146;48.074;11.968;2023-04-04T12:18:00;5.60;66.60
18043;DHT22;9146;48.074;11.968;2023-04-04T12:20:29;5.40;65.70
18043;DHT22;9146;48.074;11.968;2023-04-04T12:22:57;5.30;66.30
18043;DHT22;9146;48.074;11.968;2023-04-04T12:25:25;5.40;66.70
18043;DHT22;9146;48.074;11.968;2023-04-04T12:27:59;5.40;67.60
18043;DHT22;9146;48.074;11.968;2023-04-04T12:30:28;5.50;67.20
18043;DHT22;9146;48.074;11.968;2023-04-04T12:32:55;5.50;67.00
18043;DHT22;9146;48.074;11.968;2023-04-04T12:35:22;5.50;66.10
18043;DHT22;9146;48.074;11.968;2023-04-04T12:38:06;5.50;65.90
18043;DHT22;9146;48.074;11.968;2023-04-04T12:40:37;5.20;64.80
18043;DHT22;9146;48.074;11.968;2023-04-04T12:43:06;5.10;65.60
18043;DHT22;9146;48.074;11.968;2023-04-04T12:45:37;5.10;66.00
18043;DHT22;9146;48.074;11.968;2023-04-04T12:48:10;5.20;66.80
18043;DHT22;9146;48.074;11.968;2023-04-04T12:50:53;5.40;67.50
18043;DHT22;9146;48.074;11.968;2023-04-04T12:53:23;5.30;66.10
18043;DHT22;9146;48.074;11.968;2023-04-04T12:55:51;5.30;66.60
18043;DHT22;9146;48.074;11.968;2023-04-04T12:58:20;5.10;66.60
18043;DHT22;9146;48.074;11.968;2023-04-04T13:00:51;5.10;66.00
18043;DHT22;9146;48.074;11.968;2023-04-04T13:03:20;5.00;66.00
18043;DHT22;9146;48.074;11.968;2023-04-04T13:05:48;4.90;66.30
18043;DHT22;9146;48.074;11.968;2023-04-04T13:08:15;4.90;66.40
18043;DHT22;9146;48.074;11.968;2023-04-04T13:11:00;4.80;64.70
18043;DHT22;9146;48.074;11.968;2023-04-04T13:13:35;4.70;64.00
18043;DHT22;9146;48.074;11.968;2023-04-04T13:16:05;4.50;64.30
18043;DHT22;9146;48.074;11.968;2023-04-04T13:18:35;4.50;64.40
18043;DHT22;9146;48.074;11.968;2023-04-04T13:21:03;4.50;66.10
18043;DHT22;9146;48.074;11.968;2023-04-04T13:23:32;4.60;70.20
18043;DHT22;9146;48.074;11.968;2023-04-04T13:26:00;4.60;69.40
18043;DHT22;9146;48.074;11.968;2023-04-04T13:28:29;4.70;69.00
18043;DHT22;9146;48.074;11.968;2023-04-04T13:30:56;4.80;68.20
18043;DHT22;9146;48.074;11.968;2023-04-04T13:33:22;4.80;67.20
18043;DHT22;9146;48.074;11.968;2023-04-04T13:35:50;4.70;66.40
18043;DHT22;9146;48.074;11.968;2023-04-04T13:38:17;4.60;67.20
18043;DHT22;9146;48.074;11.968;2023-04-04T13:40:44;4.60;67.00
18043;DHT22;9146;48.074;11.968;2023-04-04T13:43:12;4.70;65.40
18043;DHT22;9146;48.074;11.968;2023-04-04T13:45:41;4.70;65.40
18043;DHT22;9146;48.074;11.968;2023-04-04T13:48:08;4.70;64.60
18043;DHT22;9146;48.074;11.968;2023-04-04T13:50:36;4.70;63.70
18043;DHT22;9146;48.074;11.968;2023-04-04T13:53:03;4.60;64.00
18043;DHT22;9146;48.074;11.968;2023-04-04T13:55:30;4.60;64.40
18043;DHT22;9146;48.074;11.968;2023-04-04T13:57:57;4.50;65.00
18043;DHT22;9146;48.074;11.968;2023-04-04T14:00:26;4.40;64.60
18043;DHT22;9146;48.074;11.968;2023-04-04T14:02:53;4.30;64.00
18043;DHT22;9146;48.074;11.968;2023-04-04T14:05:21;4.50;63.40
18043;DHT22;9146;48.074;11.968;2023-04-04T14:07:48;4.70;63.50
18043;DHT22;9146;48.074;11.968;2023-04-04T14:10:15;4.90;64.30
18043;DHT22;9146;48.074;11.968;2023-04-04T14:12:42;5.10;63.60
18043;DHT22;9146;48.074;11.968;2023-04-04T14:15:10;5.40;63.60
18043;DHT22;9146;48.074;11.968;2023-04-04T14:17:39;5.50;63.60
18043;DHT22;9146;48.074;11.968;2023-04-04T14:20:07;5.70;62.80
18043;DHT22;9146;48.074;11.968;2023-04-04T14:22:34;5.70;63.40
18043;DHT22;9146;48.074;11.968;2023-04-04T14:25:01;5.70;63.40
18043;DHT22;9146;48.074;11.968;2023-04-04T14:27:29;5.60;62.20
18043;DHT22;9146;48.074;11.968;2023-04-04T14:29:56;5.50;62.80
18043;DHT22;9146;48.074;11.968;2023-04-04T14:32:23;5.30;61.50
18043;DHT22;9146;48.074;11.968;2023-04-04T14:34:51;5.30;61.20
18043;DHT22;9146;48.074;11.968;2023-04-04T14:37:18;5.30;61.20
18043;DHT22;9146;48.074;11.968;2023-04-04T14:39:46;5.20;60.80
18043;DHT22;9146;48.074;11.968;2023-04-04T14:42:13;5.20;60.00
18043;DHT22;9146;48.074;11.968;2023-04-04T14:44:40;5.10;60.40
18043;DHT22;9146;48.074;11.968;2023-04-04T14:47:07;5.20;61.00
18043;DHT22;9146;48.074;11.968;2023-04-04T14:49:35;5.30;61.50
18043;DHT22;9146;48.074;11.968;2023-04-04T14:52:03;5.30;61.10
18043;DHT22;9146;48.074;11.968;2023-04-04T14:54:30;5.40;60.90
18043;DHT22;9146;48.074;11.968;2023-04-04T14:56:57;5.40;61.40
18043;DHT22;9146;48.074;11.968;2023-04-04T14:59:25;5.30;61.80
18043;DHT22;9146;48.074;11.968;2023-04-04T15:01:52;5.20;60.80
18043;DHT22;9146;48.074;11.968;2023-04-04T15:04:19;5.10;60.90
18043;DHT22;9146;48.074;11.968;2023-04-04T15:06:46;5.00;61.60
18043;DHT22;9146;48.074;11.968;2023-04-04T15:09:16;5.00;63.00
18043;DHT22;9146;48.074;11.968;2023-04-04T15:11:43;4.90;63.40
18043;DHT22;9146;48.074;11.968;2023-04-04T15:14:10;5.00;63.70
18043;DHT22;9146;48.074;11.968;2023-04-04T15:16:36;5.10;63.00
18043;DHT22;9146;48.074;11.968;2023-04-04T15:19:04;5.10;62.50
18043;DHT22;9146;48.074;11.968;2023-04-04T15:21:31;5.20;62.90
18043;DHT22;9146;48.074;11.968;2023-04-04T15:23:58;5.30;63.10
18043;DHT22;9146;48.074;11.968;2023-04-04T15:26:26;5.30;62.50
18043;DHT22;9146;48.074;11.968;2023-04-04T15:28:53;5.20;61.20
18043;DHT22;9146;48.074;11.968;2023-04-04T15:31:20;5.10;63.00
18043;DHT22;9146;48.074;11.968;2023-04-04T15:33:47;5.00;62.30
18043;DHT22;9146;48.074;11.968;2023-04-04T15:36:14;4.80;61.70
18043;DHT22;9146;48.074;11.968;2023-04-04T15:38:42;4.60;61.70
18043;DHT22;9146;48.074;11.968;2023-04-04T15:41:09;4.50;62.10
18043;DHT22;9146;48.074;11.968;2023-04-04T15:43:38;4.40;62.70
18043;DHT22;9146;48.074;11.968;2023-04-04T15:46:05;4.30;62.90
18043;DHT22;9146;48.074;11.968;2023-04-04T15:48:32;4.30;64.80
18043;DHT22;9146;48.074;11.968;2023-04-04T15:51:00;4.40;64.80